sensor_id;sensor_type;location;lat;lon;timestamp;P1;durP1;ratioP1;P2;durP2;ratioP2
55218;SDS011;65463;43.864;20.136;2023-02-20T00:01:13;58.90;;;27.63;;
55218;SDS011;65463;43.864;20.136;2023-02-20T00:03:39;61.50;;;29.42;;
55218;SDS011;65463;43.864;20.136;2023-02-20T00:06:06;53.50;;;23.90;;
55218;SDS011;65463;43.864;20.136;2023-02-20T00:08:32;57.78;;;24.98;;
55218;SDS011;65463;43.864;20.136;2023-02-20T00:10:58;75.15;;;26.73;;
55218;SDS011;65463;43.864;20.136;2023-02-20T00:13:24;78.28;;;25.90;;
55218;SDS011;65463;43.864;20.136;2023-02-20T00:15:51;82.10;;;27.08;;
55218;SDS011;65463;43.864;20.136;2023-02-20T00:18:17;62.63;;;25.30;;
55218;SDS011;65463;43.864;20.136;2023-02-20T00:20:43;70.28;;;25.95;;
55218;SDS011;65463;43.864;20.136;2023-02-20T00:23:09;61.85;;;25.60;;
55218;SDS011;65463;43.864;20.136;2023-02-20T00:25:35;70.32;;;25.35;;
55218;SDS011;65463;43.864;20.136;2023-02-20T00:28:02;62.42;;;24.73;;
55218;SDS011;65463;43.864;20.136;2023-02-20T00:30:28;60.53;;;24.85;;
55218;SDS011;65463;43.864;20.136;2023-02-20T00:32:54;55.60;;;24.73;;
55218;SDS011;65463;43.864;20.136;2023-02-20T00:35:24;53.08;;;23.10;;
55218;SDS011;65463;43.864;20.136;2023-02-20T00:37:51;56.97;;;24.50;;
55218;SDS011;65463;43.864;20.136;2023-02-20T00:40:18;58.45;;;25.35;;
55218;SDS011;65463;43.864;20.136;2023-02-20T00:42:45;55.38;;;24.88;;
55218;SDS011;65463;43.864;20.136;2023-02-20T00:45:12;56.00;;;27.73;;
55218;SDS011;65463;43.864;20.136;2023-02-20T00:47:40;56.47;;;25.85;;
55218;SDS011;65463;43.864;20.136;2023-02-20T00:50:06;48.55;;;23.05;;
55218;SDS011;65463;43.864;20.136;2023-02-20T00:52:33;48.75;;;22.48;;
55218;SDS011;65463;43.864;20.136;2023-02-20T00:55:00;41.55;;;21.77;;
55218;SDS011;65463;43.864;20.136;2023-02-20T00:57:26;38.97;;;21.58;;
55218;SDS011;65463;43.864;20.136;2023-02-20T00:59:52;39.92;;;21.88;;
55218;SDS011;65463;43.864;20.136;2023-02-20T01:02:18;44.17;;;21.90;;
55218;SDS011;65463;43.864;20.136;2023-02-20T01:04:44;46.47;;;23.40;;
55218;SDS011;65463;43.864;20.136;2023-02-20T01:07:10;50.40;;;23.23;;
55218;SDS011;65463;43.864;20.136;2023-02-20T01:09:36;46.15;;;23.50;;
55218;SDS011;65463;43.864;20.136;2023-02-20T01:12:02;47.80;;;24.10;;
55218;SDS011;65463;43.864;20.136;2023-02-20T01:14:28;47.58;;;23.63;;
55218;SDS011;65463;43.864;20.136;2023-02-20T01:16:54;46.55;;;24.52;;
55218;SDS011;65463;43.864;20.136;2023-02-20T01:19:20;50.40;;;25.02;;
55218;SDS011;65463;43.864;20.136;2023-02-20T01:21:47;41.78;;;22.88;;
55218;SDS011;65463;43.864;20.136;2023-02-20T01:24:14;44.83;;;24.38;;
55218;SDS011;65463;43.864;20.136;2023-02-20T01:26:41;44.22;;;23.63;;
55218;SDS011;65463;43.864;20.136;2023-02-20T01:29:10;48.40;;;26.20;;
55218;SDS011;65463;43.864;20.136;2023-02-20T01:31:37;47.55;;;25.17;;
55218;SDS011;65463;43.864;20.136;2023-02-20T01:34:03;49.38;;;25.60;;
55218;SDS011;65463;43.864;20.136;2023-02-20T01:36:29;51.25;;;26.90;;
55218;SDS011;65463;43.864;20.136;2023-02-20T01:38:55;52.28;;;26.52;;
55218;SDS011;65463;43.864;20.136;2023-02-20T01:41:22;50.55;;;26.10;;
55218;SDS011;65463;43.864;20.136;2023-02-20T01:43:49;55.17;;;26.92;;
55218;SDS011;65463;43.864;20.136;2023-02-20T01:48:54;43.90;;;25.58;;
55218;SDS011;65463;43.864;20.136;2023-02-20T01:51:27;47.55;;;25.73;;
55218;SDS011;65463;43.864;20.136;2023-02-20T01:54:01;53.40;;;26.52;;
55218;SDS011;65463;43.864;20.136;2023-02-20T01:56:28;49.10;;;27.20;;
55218;SDS011;65463;43.864;20.136;2023-02-20T01:58:55;48.15;;;25.42;;
55218;SDS011;65463;43.864;20.136;2023-02-20T02:01:20;43.67;;;24.65;;
55218;SDS011;65463;43.864;20.136;2023-02-20T02:03:47;47.40;;;26.35;;
55218;SDS011;65463;43.864;20.136;2023-02-20T02:06:17;45.08;;;23.35;;
55218;SDS011;65463;43.864;20.136;2023-02-20T02:08:43;43.65;;;24.65;;
55218;SDS011;65463;43.864;20.136;2023-02-20T02:11:11;44.15;;;23.30;;
55218;SDS011;65463;43.864;20.136;2023-02-20T02:13:41;44.85;;;24.30;;
55218;SDS011;65463;43.864;20.136;2023-02-20T02:30:10;49.20;;;26.13;;
55218;SDS011;65463;43.864;20.136;2023-02-20T02:38:31;46.42;;;25.70;;
55218;SDS011;65463;43.864;20.136;2023-02-20T02:41:05;47.97;;;25.95;;
55218;SDS011;65463;43.864;20.136;2023-02-20T02:46:36;59.25;;;26.48;;
55218;SDS011;65463;43.864;20.136;2023-02-20T02:49:24;58.53;;;26.50;;
55218;SDS011;65463;43.864;20.136;2023-02-20T02:51:51;46.65;;;25.45;;
55218;SDS011;65463;43.864;20.136;2023-02-20T02:54:20;57.53;;;30.15;;
55218;SDS011;65463;43.864;20.136;2023-02-20T02:56:53;67.03;;;30.08;;
55218;SDS011;65463;43.864;20.136;2023-02-20T02:59:37;60.42;;;30.40;;
55218;SDS011;65463;43.864;20.136;2023-02-20T03:02:06;85.13;;;39.70;;
55218;SDS011;65463;43.864;20.136;2023-02-20T03:04:36;55.30;;;27.58;;
55218;SDS011;65463;43.864;20.136;2023-02-20T03:07:08;50.95;;;27.25;;
55218;SDS011;65463;43.864;20.136;2023-02-20T03:09:37;49.88;;;27.90;;
55218;SDS011;65463;43.864;20.136;2023-02-20T03:12:03;48.95;;;27.80;;
55218;SDS011;65463;43.864;20.136;2023-02-20T03:14:33;52.05;;;28.33;;
55218;SDS011;65463;43.864;20.136;2023-02-20T03:17:27;52.45;;;28.67;;
55218;SDS011;65463;43.864;20.136;2023-02-20T03:19:55;50.15;;;28.05;;
55218;SDS011;65463;43.864;20.136;2023-02-20T03:22:35;46.90;;;26.75;;
55218;SDS011;65463;43.864;20.136;2023-02-20T03:25:05;47.45;;;25.48;;
55218;SDS011;65463;43.864;20.136;2023-02-20T03:30:06;47.80;;;25.90;;
55218;SDS011;65463;43.864;20.136;2023-02-20T03:32:32;44.95;;;24.52;;
55218;SDS011;65463;43.864;20.136;2023-02-20T03:35:17;47.70;;;26.35;;
55218;SDS011;65463;43.864;20.136;2023-02-20T03:38:03;52.20;;;26.27;;
55218;SDS011;65463;43.864;20.136;2023-02-20T03:40:49;47.30;;;27.50;;
55218;SDS011;65463;43.864;20.136;2023-02-20T03:43:34;51.50;;;27.13;;
55218;SDS011;65463;43.864;20.136;2023-02-20T03:46:05;48.47;;;25.70;;
55218;SDS011;65463;43.864;20.136;2023-02-20T03:51:14;49.85;;;28.27;;
55218;SDS011;65463;43.864;20.136;2023-02-20T03:53:41;48.78;;;27.55;;
55218;SDS011;65463;43.864;20.136;2023-02-20T03:56:13;46.67;;;26.05;;
55218;SDS011;65463;43.864;20.136;2023-02-20T03:58:44;51.95;;;27.58;;
55218;SDS011;65463;43.864;20.136;2023-02-20T04:01:12;47.30;;;26.45;;
55218;SDS011;65463;43.864;20.136;2023-02-20T04:03:42;48.72;;;27.25;;
55218;SDS011;65463;43.864;20.136;2023-02-20T04:06:11;43.58;;;25.98;;
55218;SDS011;65463;43.864;20.136;2023-02-20T04:08:39;44.22;;;25.00;;
55218;SDS011;65463;43.864;20.136;2023-02-20T04:13:41;45.97;;;26.27;;
55218;SDS011;65463;43.864;20.136;2023-02-20T04:16:08;42.03;;;24.27;;
55218;SDS011;65463;43.864;20.136;2023-02-20T04:18:35;47.78;;;25.05;;
55218;SDS011;65463;43.864;20.136;2023-02-20T04:21:03;43.42;;;24.13;;
55218;SDS011;65463;43.864;20.136;2023-02-20T04:23:36;44.40;;;24.73;;
55218;SDS011;65463;43.864;20.136;2023-02-20T04:26:11;46.40;;;25.85;;
55218;SDS011;65463;43.864;20.136;2023-02-20T04:28:42;43.78;;;25.15;;
55218;SDS011;65463;43.864;20.136;2023-02-20T04:31:10;43.80;;;25.33;;
55218;SDS011;65463;43.864;20.136;2023-02-20T04:33:38;45.65;;;23.83;;
55218;SDS011;65463;43.864;20.136;2023-02-20T04:36:04;44.42;;;24.08;;
55218;SDS011;65463;43.864;20.136;2023-02-20T04:38:30;46.03;;;24.98;;
55218;SDS011;65463;43.864;20.136;2023-02-20T04:40:56;44.85;;;25.33;;
55218;SDS011;65463;43.864;20.136;2023-02-20T04:43:22;44.00;;;25.90;;
55218;SDS011;65463;43.864;20.136;2023-02-20T04:45:48;45.33;;;26.17;;
55218;SDS011;65463;43.864;20.136;2023-02-20T04:48:13;49.83;;;27.20;;
55218;SDS011;65463;43.864;20.136;2023-02-20T04:50:39;47.95;;;25.38;;
55218;SDS011;65463;43.864;20.136;2023-02-20T04:53:05;43.58;;;24.77;;
55218;SDS011;65463;43.864;20.136;2023-02-20T04:55:31;45.38;;;25.88;;
55218;SDS011;65463;43.864;20.136;2023-02-20T04:57:57;44.80;;;24.80;;
55218;SDS011;65463;43.864;20.136;2023-02-20T05:00:23;43.22;;;23.30;;
55218;SDS011;65463;43.864;20.136;2023-02-20T05:02:50;39.28;;;23.80;;
55218;SDS011;65463;43.864;20.136;2023-02-20T05:07:46;46.30;;;25.55;;
55218;SDS011;65463;43.864;20.136;2023-02-20T05:10:17;50.25;;;27.60;;
55218;SDS011;65463;43.864;20.136;2023-02-20T05:12:45;47.13;;;26.65;;
55218;SDS011;65463;43.864;20.136;2023-02-20T05:15:11;48.13;;;27.08;;
55218;SDS011;65463;43.864;20.136;2023-02-20T05:17:38;46.75;;;27.40;;
55218;SDS011;65463;43.864;20.136;2023-02-20T05:20:04;52.55;;;28.45;;
55218;SDS011;65463;43.864;20.136;2023-02-20T05:22:31;46.75;;;26.45;;
55218;SDS011;65463;43.864;20.136;2023-02-20T05:24:57;47.17;;;26.17;;
55218;SDS011;65463;43.864;20.136;2023-02-20T05:27:23;44.72;;;25.38;;
55218;SDS011;65463;43.864;20.136;2023-02-20T05:29:51;42.33;;;24.85;;
55218;SDS011;65463;43.864;20.136;2023-02-20T05:32:19;40.85;;;23.52;;
55218;SDS011;65463;43.864;20.136;2023-02-20T05:34:46;41.55;;;24.02;;
55218;SDS011;65463;43.864;20.136;2023-02-20T05:37:13;46.22;;;24.52;;
55218;SDS011;65463;43.864;20.136;2023-02-20T05:39:40;53.05;;;27.35;;
55218;SDS011;65463;43.864;20.136;2023-02-20T05:42:09;49.67;;;27.83;;
55218;SDS011;65463;43.864;20.136;2023-02-20T05:44:35;46.65;;;27.67;;
55218;SDS011;65463;43.864;20.136;2023-02-20T05:47:02;47.47;;;25.45;;
55218;SDS011;65463;43.864;20.136;2023-02-20T05:49:29;47.00;;;25.85;;
55218;SDS011;65463;43.864;20.136;2023-02-20T05:51:55;43.25;;;24.70;;
55218;SDS011;65463;43.864;20.136;2023-02-20T05:54:22;43.20;;;25.50;;
55218;SDS011;65463;43.864;20.136;2023-02-20T05:56:48;44.97;;;23.75;;
55218;SDS011;65463;43.864;20.136;2023-02-20T05:59:17;41.10;;;22.90;;
55218;SDS011;65463;43.864;20.136;2023-02-20T06:01:44;39.90;;;23.17;;
55218;SDS011;65463;43.864;20.136;2023-02-20T06:04:10;40.15;;;22.48;;
55218;SDS011;65463;43.864;20.136;2023-02-20T06:06:37;38.88;;;21.55;;
55218;SDS011;65463;43.864;20.136;2023-02-20T06:09:07;48.20;;;27.70;;
55218;SDS011;65463;43.864;20.136;2023-02-20T06:11:37;46.38;;;26.38;;
55218;SDS011;65463;43.864;20.136;2023-02-20T06:14:04;43.05;;;24.92;;
55218;SDS011;65463;43.864;20.136;2023-02-20T06:16:31;44.90;;;23.25;;
55218;SDS011;65463;43.864;20.136;2023-02-20T06:18:58;47.03;;;25.15;;
55218;SDS011;65463;43.864;20.136;2023-02-20T06:21:24;48.03;;;26.48;;
55218;SDS011;65463;43.864;20.136;2023-02-20T06:23:51;67.70;;;34.53;;
55218;SDS011;65463;43.864;20.136;2023-02-20T06:26:18;52.22;;;26.50;;
55218;SDS011;65463;43.864;20.136;2023-02-20T06:28:45;58.47;;;28.90;;
55218;SDS011;65463;43.864;20.136;2023-02-20T06:31:18;54.92;;;28.80;;
55218;SDS011;65463;43.864;20.136;2023-02-20T06:33:49;56.72;;;32.10;;
55218;SDS011;65463;43.864;20.136;2023-02-20T06:36:20;55.25;;;32.65;;
55218;SDS011;65463;43.864;20.136;2023-02-20T06:38:49;54.88;;;32.92;;
55218;SDS011;65463;43.864;20.136;2023-02-20T06:41:15;56.47;;;32.20;;
55218;SDS011;65463;43.864;20.136;2023-02-20T06:43:41;51.22;;;30.13;;
55218;SDS011;65463;43.864;20.136;2023-02-20T06:46:06;65.70;;;37.97;;
55218;SDS011;65463;43.864;20.136;2023-02-20T06:48:32;57.60;;;31.30;;
55218;SDS011;65463;43.864;20.136;2023-02-20T06:50:59;68.18;;;30.50;;
55218;SDS011;65463;43.864;20.136;2023-02-20T06:53:25;82.00;;;39.47;;
55218;SDS011;65463;43.864;20.136;2023-02-20T06:55:51;101.38;;;32.55;;
55218;SDS011;65463;43.864;20.136;2023-02-20T06:58:17;124.80;;;36.78;;
55218;SDS011;65463;43.864;20.136;2023-02-20T07:00:43;76.72;;;35.17;;
55218;SDS011;65463;43.864;20.136;2023-02-20T07:03:09;64.25;;;30.83;;
55218;SDS011;65463;43.864;20.136;2023-02-20T07:05:35;65.70;;;28.85;;
55218;SDS011;65463;43.864;20.136;2023-02-20T07:08:01;58.80;;;32.05;;
55218;SDS011;65463;43.864;20.136;2023-02-20T07:10:27;50.35;;;28.80;;
55218;SDS011;65463;43.864;20.136;2023-02-20T07:12:53;46.40;;;27.85;;
55218;SDS011;65463;43.864;20.136;2023-02-20T07:15:19;39.13;;;24.25;;
55218;SDS011;65463;43.864;20.136;2023-02-20T07:17:46;46.20;;;25.25;;
55218;SDS011;65463;43.864;20.136;2023-02-20T07:20:13;45.50;;;24.83;;
55218;SDS011;65463;43.864;20.136;2023-02-20T07:22:44;43.92;;;25.05;;
55218;SDS011;65463;43.864;20.136;2023-02-20T07:25:13;39.58;;;21.63;;
55218;SDS011;65463;43.864;20.136;2023-02-20T07:27:40;35.92;;;22.23;;
55218;SDS011;65463;43.864;20.136;2023-02-20T07:30:05;43.88;;;25.02;;
55218;SDS011;65463;43.864;20.136;2023-02-20T07:32:31;49.83;;;28.13;;
55218;SDS011;65463;43.864;20.136;2023-02-20T07:34:57;50.50;;;25.80;;
55218;SDS011;65463;43.864;20.136;2023-02-20T07:37:23;56.95;;;26.77;;
55218;SDS011;65463;43.864;20.136;2023-02-20T07:39:49;51.83;;;27.92;;
55218;SDS011;65463;43.864;20.136;2023-02-20T07:42:16;56.42;;;29.08;;
55218;SDS011;65463;43.864;20.136;2023-02-20T07:44:42;59.55;;;28.70;;
55218;SDS011;65463;43.864;20.136;2023-02-20T07:47:11;55.83;;;28.52;;
55218;SDS011;65463;43.864;20.136;2023-02-20T07:49:37;61.42;;;30.38;;
55218;SDS011;65463;43.864;20.136;2023-02-20T07:52:03;43.45;;;23.65;;
55218;SDS011;65463;43.864;20.136;2023-02-20T07:54:30;36.75;;;21.70;;
55218;SDS011;65463;43.864;20.136;2023-02-20T07:56:56;28.52;;;17.65;;
55218;SDS011;65463;43.864;20.136;2023-02-20T07:59:22;27.95;;;17.85;;
55218;SDS011;65463;43.864;20.136;2023-02-20T08:01:48;31.15;;;17.63;;
55218;SDS011;65463;43.864;20.136;2023-02-20T08:04:15;32.55;;;18.80;;
55218;SDS011;65463;43.864;20.136;2023-02-20T08:06:41;31.63;;;19.95;;
55218;SDS011;65463;43.864;20.136;2023-02-20T08:09:07;32.25;;;19.77;;
55218;SDS011;65463;43.864;20.136;2023-02-20T08:11:33;29.05;;;16.63;;
55218;SDS011;65463;43.864;20.136;2023-02-20T08:14:00;24.90;;;17.10;;
55218;SDS011;65463;43.864;20.136;2023-02-20T08:16:28;25.92;;;17.00;;
55218;SDS011;65463;43.864;20.136;2023-02-20T08:18:54;29.42;;;17.77;;
55218;SDS011;65463;43.864;20.136;2023-02-20T08:21:20;35.83;;;21.85;;
55218;SDS011;65463;43.864;20.136;2023-02-20T08:23:47;45.20;;;24.17;;
55218;SDS011;65463;43.864;20.136;2023-02-20T08:26:13;34.58;;;20.00;;
55218;SDS011;65463;43.864;20.136;2023-02-20T08:28:38;34.35;;;18.38;;
55218;SDS011;65463;43.864;20.136;2023-02-20T08:31:04;32.15;;;19.80;;
55218;SDS011;65463;43.864;20.136;2023-02-20T08:33:30;35.28;;;20.23;;
55218;SDS011;65463;43.864;20.136;2023-02-20T08:35:56;34.15;;;18.73;;
55218;SDS011;65463;43.864;20.136;2023-02-20T08:38:26;35.58;;;21.38;;
55218;SDS011;65463;43.864;20.136;2023-02-20T08:40:54;32.13;;;18.90;;
55218;SDS011;65463;43.864;20.136;2023-02-20T08:43:20;27.27;;;15.25;;
55218;SDS011;65463;43.864;20.136;2023-02-20T08:45:47;23.08;;;13.98;;
55218;SDS011;65463;43.864;20.136;2023-02-20T08:48:13;20.45;;;12.88;;
55218;SDS011;65463;43.864;20.136;2023-02-20T08:50:39;19.55;;;12.70;;
55218;SDS011;65463;43.864;20.136;2023-02-20T08:53:05;20.30;;;11.38;;
55218;SDS011;65463;43.864;20.136;2023-02-20T08:55:31;19.13;;;11.30;;
55218;SDS011;65463;43.864;20.136;2023-02-20T08:57:57;18.70;;;12.40;;
55218;SDS011;65463;43.864;20.136;2023-02-20T09:00:23;23.05;;;13.00;;
55218;SDS011;65463;43.864;20.136;2023-02-20T09:02:49;22.92;;;12.68;;
55218;SDS011;65463;43.864;20.136;2023-02-20T09:05:15;17.52;;;11.88;;
55218;SDS011;65463;43.864;20.136;2023-02-20T09:07:41;18.20;;;12.15;;
55218;SDS011;65463;43.864;20.136;2023-02-20T09:10:09;22.40;;;14.07;;
55218;SDS011;65463;43.864;20.136;2023-02-20T09:12:35;23.13;;;13.90;;
55218;SDS011;65463;43.864;20.136;2023-02-20T09:15:03;20.63;;;12.32;;
55218;SDS011;65463;43.864;20.136;2023-02-20T09:17:30;18.83;;;12.23;;
55218;SDS011;65463;43.864;20.136;2023-02-20T09:19:56;21.13;;;13.65;;
55218;SDS011;65463;43.864;20.136;2023-02-20T09:22:23;15.48;;;9.65;;
55218;SDS011;65463;43.864;20.136;2023-02-20T09:24:49;15.25;;;10.27;;
55218;SDS011;65463;43.864;20.136;2023-02-20T09:27:18;16.88;;;11.35;;
55218;SDS011;65463;43.864;20.136;2023-02-20T09:29:44;12.07;;;8.27;;
55218;SDS011;65463;43.864;20.136;2023-02-20T09:32:11;8.50;;;5.50;;
55218;SDS011;65463;43.864;20.136;2023-02-20T09:34:37;8.32;;;5.43;;
55218;SDS011;65463;43.864;20.136;2023-02-20T09:37:03;11.25;;;5.28;;
55218;SDS011;65463;43.864;20.136;2023-02-20T09:39:29;7.70;;;4.63;;
55218;SDS011;65463;43.864;20.136;2023-02-20T09:44:45;5.88;;;3.95;;
55218;SDS011;65463;43.864;20.136;2023-02-20T09:50:13;14.82;;;5.35;;
55218;SDS011;65463;43.864;20.136;2023-02-20T09:52:53;7.82;;;3.67;;
55218;SDS011;65463;43.864;20.136;2023-02-20T09:55:25;14.00;;;4.65;;
55218;SDS011;65463;43.864;20.136;2023-02-20T09:57:52;6.28;;;3.17;;
55218;SDS011;65463;43.864;20.136;2023-02-20T10:00:24;5.07;;;2.90;;
55218;SDS011;65463;43.864;20.136;2023-02-20T10:06:02;5.93;;;3.20;;
55218;SDS011;65463;43.864;20.136;2023-02-20T10:08:52;6.45;;;3.50;;
55218;SDS011;65463;43.864;20.136;2023-02-20T10:12:06;5.95;;;3.30;;
55218;SDS011;65463;43.864;20.136;2023-02-20T10:25:10;5.05;;;3.40;;
55218;SDS011;65463;43.864;20.136;2023-02-20T10:30:49;5.55;;;3.78;;
55218;SDS011;65463;43.864;20.136;2023-02-20T10:33:34;25.63;;;16.20;;
55218;SDS011;65463;43.864;20.136;2023-02-20T10:38:47;4.45;;;3.00;;
55218;SDS011;65463;43.864;20.136;2023-02-20T10:42:06;5.53;;;3.28;;
55218;SDS011;65463;43.864;20.136;2023-02-20T10:46:57;6.55;;;3.40;;
55218;SDS011;65463;43.864;20.136;2023-02-20T10:52:25;4.47;;;3.10;;
55218;SDS011;65463;43.864;20.136;2023-02-20T10:55:02;6.30;;;3.45;;
55218;SDS011;65463;43.864;20.136;2023-02-20T10:57:42;9.95;;;5.38;;
55218;SDS011;65463;43.864;20.136;2023-02-20T11:00:21;11.43;;;3.60;;
55218;SDS011;65463;43.864;20.136;2023-02-20T11:02:53;7.32;;;3.45;;
55218;SDS011;65463;43.864;20.136;2023-02-20T11:05:34;7.72;;;3.58;;
55218;SDS011;65463;43.864;20.136;2023-02-20T11:08:05;10.43;;;5.93;;
55218;SDS011;65463;43.864;20.136;2023-02-20T11:10:31;4.88;;;3.20;;
55218;SDS011;65463;43.864;20.136;2023-02-20T11:12:59;6.20;;;3.67;;
55218;SDS011;65463;43.864;20.136;2023-02-20T11:15:30;7.38;;;3.78;;
55218;SDS011;65463;43.864;20.136;2023-02-20T11:17:58;5.07;;;3.10;;
55218;SDS011;65463;43.864;20.136;2023-02-20T11:22:57;6.70;;;3.03;;
55218;SDS011;65463;43.864;20.136;2023-02-20T11:25:35;4.18;;;2.97;;
55218;SDS011;65463;43.864;20.136;2023-02-20T11:28:21;14.38;;;3.45;;
55218;SDS011;65463;43.864;20.136;2023-02-20T11:31:00;9.73;;;3.03;;
55218;SDS011;65463;43.864;20.136;2023-02-20T11:33:30;4.10;;;2.60;;
55218;SDS011;65463;43.864;20.136;2023-02-20T11:38:27;4.70;;;2.60;;
55218;SDS011;65463;43.864;20.136;2023-02-20T11:48:34;5.35;;;2.45;;
55218;SDS011;65463;43.864;20.136;2023-02-20T11:51:00;4.57;;;2.70;;
55218;SDS011;65463;43.864;20.136;2023-02-20T11:53:30;4.35;;;2.72;;
55218;SDS011;65463;43.864;20.136;2023-02-20T11:56:10;4.10;;;2.90;;
55218;SDS011;65463;43.864;20.136;2023-02-20T11:58:38;6.05;;;2.92;;
55218;SDS011;65463;43.864;20.136;2023-02-20T12:01:05;5.97;;;2.72;;
55218;SDS011;65463;43.864;20.136;2023-02-20T12:03:32;4.35;;;2.47;;
55218;SDS011;65463;43.864;20.136;2023-02-20T12:05:59;5.10;;;2.40;;
55218;SDS011;65463;43.864;20.136;2023-02-20T12:11:08;5.60;;;2.50;;
55218;SDS011;65463;43.864;20.136;2023-02-20T12:13:40;4.65;;;2.50;;
55218;SDS011;65463;43.864;20.136;2023-02-20T12:16:27;3.05;;;2.10;;
55218;SDS011;65463;43.864;20.136;2023-02-20T12:21:48;5.13;;;2.30;;
55218;SDS011;65463;43.864;20.136;2023-02-20T12:24:25;5.50;;;2.33;;
55218;SDS011;65463;43.864;20.136;2023-02-20T12:27:17;3.60;;;2.15;;
55218;SDS011;65463;43.864;20.136;2023-02-20T12:30:05;6.88;;;3.92;;
55218;SDS011;65463;43.864;20.136;2023-02-20T12:32:46;81.07;;;41.83;;
55218;SDS011;65463;43.864;20.136;2023-02-20T12:43:21;4.63;;;2.60;;
55218;SDS011;65463;43.864;20.136;2023-02-20T12:51:35;23.55;;;4.25;;
55218;SDS011;65463;43.864;20.136;2023-02-20T12:56:36;38.13;;;11.30;;
55218;SDS011;65463;43.864;20.136;2023-02-20T13:01:59;26.40;;;4.47;;
55218;SDS011;65463;43.864;20.136;2023-02-20T13:04:43;21.88;;;4.60;;
55218;SDS011;65463;43.864;20.136;2023-02-20T13:12:40;9.80;;;3.10;;
55218;SDS011;65463;43.864;20.136;2023-02-20T13:20:43;18.10;;;3.58;;
55218;SDS011;65463;43.864;20.136;2023-02-20T13:25:42;9.30;;;2.80;;
55218;SDS011;65463;43.864;20.136;2023-02-20T13:31:16;6.13;;;2.35;;
55218;SDS011;65463;43.864;20.136;2023-02-20T13:36:35;3.00;;;2.20;;
55218;SDS011;65463;43.864;20.136;2023-02-20T13:57:41;6.65;;;3.00;;
55218;SDS011;65463;43.864;20.136;2023-02-20T14:02:51;4.07;;;2.13;;
55218;SDS011;65463;43.864;20.136;2023-02-20T14:05:29;3.97;;;2.10;;
55218;SDS011;65463;43.864;20.136;2023-02-20T14:07:56;3.05;;;1.88;;
55218;SDS011;65463;43.864;20.136;2023-02-20T14:10:25;3.28;;;1.85;;
55218;SDS011;65463;43.864;20.136;2023-02-20T14:13:00;3.80;;;1.80;;
55218;SDS011;65463;43.864;20.136;2023-02-20T14:15:27;3.60;;;2.08;;
55218;SDS011;65463;43.864;20.136;2023-02-20T14:17:53;13.13;;;3.42;;
55218;SDS011;65463;43.864;20.136;2023-02-20T14:20:24;4.75;;;2.50;;
55218;SDS011;65463;43.864;20.136;2023-02-20T14:25:32;8.25;;;5.15;;
55218;SDS011;65463;43.864;20.136;2023-02-20T14:28:05;8.02;;;3.72;;
55218;SDS011;65463;43.864;20.136;2023-02-20T14:30:32;4.78;;;2.80;;
55218;SDS011;65463;43.864;20.136;2023-02-20T14:32:59;6.68;;;4.20;;
55218;SDS011;65463;43.864;20.136;2023-02-20T14:40:40;4.93;;;2.55;;
55218;SDS011;65463;43.864;20.136;2023-02-20T14:43:25;4.18;;;2.35;;
55218;SDS011;65463;43.864;20.136;2023-02-20T14:46:05;4.70;;;2.95;;
55218;SDS011;65463;43.864;20.136;2023-02-20T14:48:39;4.88;;;2.28;;
55218;SDS011;65463;43.864;20.136;2023-02-20T14:51:15;5.05;;;3.35;;
55218;SDS011;65463;43.864;20.136;2023-02-20T14:53:55;7.85;;;2.17;;
55218;SDS011;65463;43.864;20.136;2023-02-20T14:56:22;6.85;;;2.80;;
55218;SDS011;65463;43.864;20.136;2023-02-20T14:58:48;6.60;;;2.25;;
55218;SDS011;65463;43.864;20.136;2023-02-20T15:03:41;8.25;;;2.60;;
55218;SDS011;65463;43.864;20.136;2023-02-20T15:06:09;4.50;;;2.03;;
55218;SDS011;65463;43.864;20.136;2023-02-20T15:08:38;7.72;;;2.28;;
55218;SDS011;65463;43.864;20.136;2023-02-20T15:11:08;8.15;;;2.67;;
55218;SDS011;65463;43.864;20.136;2023-02-20T15:13:37;17.60;;;6.88;;
55218;SDS011;65463;43.864;20.136;2023-02-20T15:16:13;20.23;;;7.82;;
55218;SDS011;65463;43.864;20.136;2023-02-20T15:18:45;9.38;;;4.03;;
55218;SDS011;65463;43.864;20.136;2023-02-20T15:21:12;11.60;;;3.50;;
55218;SDS011;65463;43.864;20.136;2023-02-20T15:23:43;8.10;;;3.30;;
55218;SDS011;65463;43.864;20.136;2023-02-20T15:31:40;6.85;;;2.80;;
55218;SDS011;65463;43.864;20.136;2023-02-20T15:34:16;7.55;;;2.80;;
55218;SDS011;65463;43.864;20.136;2023-02-20T15:36:42;9.38;;;3.10;;
55218;SDS011;65463;43.864;20.136;2023-02-20T15:39:08;6.93;;;3.38;;
55218;SDS011;65463;43.864;20.136;2023-02-20T15:41:36;11.05;;;3.67;;
55218;SDS011;65463;43.864;20.136;2023-02-20T15:44:02;30.63;;;12.15;;
55218;SDS011;65463;43.864;20.136;2023-02-20T15:46:28;13.52;;;6.70;;
55218;SDS011;65463;43.864;20.136;2023-02-20T15:48:54;15.40;;;5.53;;
55218;SDS011;65463;43.864;20.136;2023-02-20T15:51:21;12.77;;;5.28;;
55218;SDS011;65463;43.864;20.136;2023-02-20T15:53:48;12.07;;;4.10;;
55218;SDS011;65463;43.864;20.136;2023-02-20T15:56:16;10.30;;;4.55;;
55218;SDS011;65463;43.864;20.136;2023-02-20T15:58:42;10.20;;;4.25;;
55218;SDS011;65463;43.864;20.136;2023-02-20T16:01:10;9.63;;;4.75;;
55218;SDS011;65463;43.864;20.136;2023-02-20T16:03:36;11.07;;;4.43;;
55218;SDS011;65463;43.864;20.136;2023-02-20T16:06:02;8.88;;;4.63;;
55218;SDS011;65463;43.864;20.136;2023-02-20T16:08:28;10.57;;;4.70;;
55218;SDS011;65463;43.864;20.136;2023-02-20T16:10:54;10.13;;;4.22;;
55218;SDS011;65463;43.864;20.136;2023-02-20T16:13:31;8.95;;;3.80;;
55218;SDS011;65463;43.864;20.136;2023-02-20T16:16:05;8.70;;;3.80;;
55218;SDS011;65463;43.864;20.136;2023-02-20T16:18:32;10.25;;;4.30;;
55218;SDS011;65463;43.864;20.136;2023-02-20T16:20:58;20.63;;;6.85;;
55218;SDS011;65463;43.864;20.136;2023-02-20T16:23:24;36.10;;;14.32;;
55218;SDS011;65463;43.864;20.136;2023-02-20T16:25:54;38.33;;;13.70;;
55218;SDS011;65463;43.864;20.136;2023-02-20T16:28:20;27.85;;;11.10;;
55218;SDS011;65463;43.864;20.136;2023-02-20T16:30:46;28.95;;;11.50;;
55218;SDS011;65463;43.864;20.136;2023-02-20T16:35:39;31.25;;;10.68;;
55218;SDS011;65463;43.864;20.136;2023-02-20T16:38:06;29.42;;;10.52;;
55218;SDS011;65463;43.864;20.136;2023-02-20T16:40:32;29.08;;;11.20;;
55218;SDS011;65463;43.864;20.136;2023-02-20T16:42:59;30.40;;;10.82;;
55218;SDS011;65463;43.864;20.136;2023-02-20T16:45:25;27.85;;;11.57;;
55218;SDS011;65463;43.864;20.136;2023-02-20T16:47:52;25.33;;;11.75;;
55218;SDS011;65463;43.864;20.136;2023-02-20T16:50:20;34.05;;;11.32;;
55218;SDS011;65463;43.864;20.136;2023-02-20T16:52:49;25.10;;;9.70;;
55218;SDS011;65463;43.864;20.136;2023-02-20T16:57:41;30.08;;;13.57;;
55218;SDS011;65463;43.864;20.136;2023-02-20T17:00:08;20.88;;;10.90;;
55218;SDS011;65463;43.864;20.136;2023-02-20T17:02:37;23.42;;;10.90;;
55218;SDS011;65463;43.864;20.136;2023-02-20T17:05:03;23.50;;;10.43;;
55218;SDS011;65463;43.864;20.136;2023-02-20T17:07:29;27.45;;;9.35;;
55218;SDS011;65463;43.864;20.136;2023-02-20T17:09:55;24.05;;;9.40;;
55218;SDS011;65463;43.864;20.136;2023-02-20T17:12:22;21.55;;;9.30;;